createdAt,value
2023-01-11T00:00:39.772Z,8.43
2023-01-11T00:03:09.100Z,11.15
2023-01-11T00:05:40.749Z,9.13
2023-01-11T00:08:08.897Z,8.32
2023-01-11T00:10:36.935Z,10.30
2023-01-11T00:13:05.451Z,6.88
2023-01-11T00:15:33.397Z,7.88
2023-01-11T00:18:02.959Z,8.02
2023-01-11T00:20:32.334Z,7.30
2023-01-11T00:23:00.206Z,7.95
2023-01-11T00:25:28.224Z,9.00
2023-01-11T00:27:56.373Z,10.05
2023-01-11T00:30:24.514Z,13.45
2023-01-11T00:32:56.761Z,12.90
2023-01-11T00:35:24.954Z,9.82
2023-01-11T00:37:54.792Z,7.20
2023-01-11T00:40:24.048Z,11.35
2023-01-11T00:43:09.343Z,7.50
2023-01-11T00:45:54.787Z,11.73
2023-01-11T00:48:22.870Z,9.70
2023-01-11T00:50:54.202Z,9.82
2023-01-11T00:53:23.490Z,9.20
2023-01-11T00:55:51.211Z,12.05
2023-01-11T00:58:19.054Z,7.82
2023-01-11T01:00:47.076Z,10.80
2023-01-11T01:03:15.056Z,7.22
2023-01-11T01:05:42.822Z,9.15
2023-01-11T01:08:10.691Z,9.90
2023-01-11T01:10:39.871Z,5.88
2023-01-11T01:13:25.501Z,6.97
2023-01-11T01:15:57.906Z,11.70
2023-01-11T01:18:25.917Z,9.45
2023-01-11T01:20:53.674Z,9.45
2023-01-11T01:23:21.769Z,9.45
2023-01-11T01:25:50.948Z,9.02
2023-01-11T01:28:22.102Z,7.82
2023-01-11T01:30:51.850Z,13.60
2023-01-11T01:33:19.770Z,9.20
2023-01-11T01:35:47.704Z,10.70
2023-01-11T01:38:15.592Z,13.30
2023-01-11T01:40:43.894Z,6.40
2023-01-11T01:43:14.450Z,7.93
2023-01-11T01:45:42.479Z,8.65
2023-01-11T01:48:12.330Z,8.55
2023-01-11T01:50:44.545Z,7.07
2023-01-11T01:53:14.871Z,4.53
2023-01-11T01:55:44.919Z,13.65
2023-01-11T01:58:16.823Z,5.85
2023-01-11T02:00:46.511Z,7.15
2023-01-11T02:03:17.901Z,5.30
2023-01-11T02:05:46.056Z,4.28
2023-01-11T02:08:21.000Z,8.98
2023-01-11T02:10:48.955Z,5.63
2023-01-11T02:13:18.457Z,6.75
2023-01-11T02:15:46.759Z,5.25
2023-01-11T02:18:15.199Z,5.70
2023-01-11T02:21:01.953Z,5.55
2023-01-11T02:24:07.664Z,7.75
2023-01-11T02:26:59.712Z,5.97
2023-01-11T02:29:35.570Z,4.60
2023-01-11T02:32:10.471Z,5.22
2023-01-11T02:34:43.058Z,5.10
2023-01-11T02:37:25.074Z,4.78
2023-01-11T02:40:01.407Z,7.13
2023-01-11T02:42:55.104Z,5.53
2023-01-11T02:45:34.194Z,3.95
2023-01-11T02:48:05.130Z,5.50
2023-01-11T02:50:37.011Z,6.38
2023-01-11T02:53:10.727Z,4.53
2023-01-11T02:55:42.080Z,7.15
2023-01-11T02:58:12.538Z,4.40
2023-01-11T03:00:42.163Z,4.63
2023-01-11T03:03:13.631Z,6.07
2023-01-11T03:05:46.480Z,5.85
2023-01-11T03:08:26.009Z,5.30
2023-01-11T03:11:02.317Z,7.45
2023-01-11T03:13:38.850Z,4.78
2023-01-11T03:16:22.803Z,5.05
2023-01-11T03:18:55.508Z,5.50
2023-01-11T03:21:28.942Z,7.15
2023-01-11T03:24:06.601Z,6.13
2023-01-11T03:26:41.394Z,4.93
2023-01-11T03:29:15.813Z,6.82
2023-01-11T03:31:50.731Z,5.00
2023-01-11T03:34:24.041Z,3.92
2023-01-11T03:36:55.643Z,7.03
2023-01-11T03:39:28.444Z,4.60
2023-01-11T03:41:58.889Z,4.13
2023-01-11T03:44:28.058Z,5.82
2023-01-11T03:46:59.256Z,5.85
2023-01-11T03:49:30.677Z,4.95
2023-01-11T03:51:59.517Z,5.40
2023-01-11T03:54:30.134Z,6.78
2023-01-11T03:57:02.940Z,6.38
2023-01-11T03:59:30.996Z,4.95
2023-01-11T04:02:00.495Z,7.70
2023-01-11T04:04:28.706Z,11.15
2023-01-11T04:06:57.151Z,13.18
2023-01-11T04:09:24.981Z,7.07
2023-01-11T04:11:52.938Z,5.40
2023-01-11T04:14:20.716Z,5.78
2023-01-11T04:16:48.522Z,9.98
2023-01-11T04:19:17.626Z,6.72
2023-01-11T04:21:45.711Z,7.50
2023-01-11T04:24:14.367Z,6.85
2023-01-11T04:26:42.155Z,7.95
2023-01-11T04:29:10.606Z,9.38
2023-01-11T04:31:38.461Z,8.15
2023-01-11T04:34:06.356Z,8.57
2023-01-11T04:36:35.658Z,8.52
2023-01-11T04:39:03.622Z,6.60
2023-01-11T04:41:49.045Z,6.65
2023-01-11T04:44:16.880Z,8.70
2023-01-11T04:46:44.658Z,5.72
2023-01-11T04:49:12.424Z,7.63
2023-01-11T04:51:41.866Z,10.07
2023-01-11T04:54:10.598Z,7.88
2023-01-11T04:56:38.480Z,11.93
2023-01-11T04:59:06.215Z,14.30
2023-01-11T05:01:34.021Z,9.75
2023-01-11T05:04:01.812Z,15.23
2023-01-11T05:06:29.738Z,12.18
2023-01-11T05:09:00.749Z,9.70
2023-01-11T05:11:28.946Z,12.73
2023-01-11T05:13:59.924Z,11.60
2023-01-11T05:16:27.829Z,12.25
2023-01-11T05:18:56.704Z,15.27
2023-01-11T05:21:26.747Z,13.82
2023-01-11T05:23:54.729Z,17.63
2023-01-11T05:26:26.874Z,12.25
2023-01-11T05:28:55.781Z,17.40
2023-01-11T05:31:23.913Z,20.58
2023-01-11T05:33:51.716Z,13.48
2023-01-11T05:36:21.457Z,20.00
2023-01-11T05:38:50.780Z,21.25
2023-01-11T05:41:19.756Z,18.98
2023-01-11T05:44:07.779Z,19.83
2023-01-11T05:46:36.612Z,26.27
2023-01-11T05:49:05.173Z,22.58
2023-01-11T05:51:33.644Z,21.00
2023-01-11T05:54:02.222Z,24.35
2023-01-11T05:56:30.434Z,19.40
2023-01-11T05:58:59.573Z,34.40
2023-01-11T06:01:27.656Z,19.02
2023-01-11T06:03:55.567Z,23.95
2023-01-11T06:06:23.697Z,18.58
2023-01-11T06:08:51.770Z,22.33
2023-01-11T06:11:19.545Z,26.02
2023-01-11T06:13:47.576Z,27.42
2023-01-11T06:16:18.528Z,23.27
2023-01-11T06:18:48.702Z,27.15
2023-01-11T06:21:17.310Z,21.65
2023-01-11T06:23:47.367Z,25.27
2023-01-11T06:26:16.740Z,21.10
2023-01-11T06:28:44.810Z,23.77
2023-01-11T06:31:14.834Z,26.85
2023-01-11T06:33:45.979Z,29.30
2023-01-11T06:36:14.748Z,24.80
2023-01-11T06:38:43.485Z,16.83
2023-01-11T06:41:12.951Z,28.60
2023-01-11T06:43:42.471Z,31.65
2023-01-11T06:46:14.744Z,25.50
2023-01-11T06:48:42.699Z,24.92
2023-01-11T06:51:12.629Z,20.50
2023-01-11T06:53:41.439Z,22.80
2023-01-11T06:56:10.946Z,24.73
2023-01-11T06:58:38.937Z,25.50
2023-01-11T07:01:07.664Z,34.40
2023-01-11T07:03:35.723Z,21.92
2023-01-11T07:06:04.699Z,23.02
2023-01-11T07:08:33.935Z,25.48
2023-01-11T07:11:01.877Z,28.25
2023-01-11T07:13:29.731Z,17.85
2023-01-11T07:15:58.766Z,22.25
2023-01-11T07:18:26.558Z,18.55
2023-01-11T07:20:54.563Z,29.42
2023-01-11T07:23:22.478Z,18.15
2023-01-11T07:25:51.641Z,19.20
2023-01-11T07:28:19.414Z,26.60
2023-01-11T07:30:58.294Z,21.20
2023-01-11T07:33:27.675Z,25.30
2023-01-11T07:35:55.878Z,24.25
2023-01-11T07:38:24.021Z,20.95
2023-01-11T07:40:53.216Z,26.33
2023-01-11T07:43:23.205Z,20.15
2023-01-11T07:45:52.558Z,20.20
2023-01-11T07:48:25.009Z,19.08
2023-01-11T07:50:53.581Z,27.15
2023-01-11T07:53:21.623Z,21.50
2023-01-11T07:55:49.477Z,16.70
2023-01-11T07:58:18.695Z,22.27
2023-01-11T08:00:46.972Z,29.67
2023-01-11T08:03:14.968Z,29.38
2023-01-11T08:05:42.886Z,25.23
2023-01-11T08:08:10.826Z,39.15
2023-01-11T08:10:41.257Z,22.88
2023-01-11T08:13:30.686Z,17.98
2023-01-11T08:16:00.567Z,25.95
2023-01-11T08:18:28.483Z,27.23
2023-01-11T08:20:56.457Z,23.35
2023-01-11T08:23:25.977Z,31.95
2023-01-11T08:25:57.935Z,20.13
2023-01-11T08:28:26.348Z,25.90
2023-01-11T08:30:54.337Z,23.35
2023-01-11T08:33:23.721Z,23.55
2023-01-11T08:35:51.682Z,24.35
2023-01-11T08:38:19.900Z,26.85
2023-01-11T08:40:49.253Z,28.10
2023-01-11T08:43:17.545Z,16.10
2023-01-11T08:45:45.703Z,19.65
2023-01-11T08:48:14.102Z,24.02
2023-01-11T08:50:44.966Z,21.30
2023-01-11T08:53:13.020Z,26.20
2023-01-11T08:55:43.339Z,21.52
2023-01-11T08:58:11.315Z,22.20
2023-01-11T09:00:39.387Z,24.40
2023-01-11T09:03:07.424Z,32.08
2023-01-11T09:05:35.371Z,25.58
2023-01-11T09:08:05.170Z,22.75
2023-01-11T09:10:33.527Z,21.67
2023-01-11T09:13:01.499Z,33.03
2023-01-11T09:15:29.663Z,25.25
2023-01-11T09:17:57.855Z,26.80
2023-01-11T09:20:25.754Z,27.05
2023-01-11T09:22:54.279Z,22.60
2023-01-11T09:25:23.585Z,29.70
2023-01-11T09:27:52.899Z,20.38
2023-01-11T09:30:22.215Z,22.35
2023-01-11T09:32:50.964Z,26.30
2023-01-11T09:35:19.813Z,24.98
2023-01-11T09:37:49.592Z,28.67
2023-01-11T09:40:20.904Z,35.47
2023-01-11T09:42:52.855Z,31.42
2023-01-11T09:45:23.520Z,34.67
2023-01-11T09:47:53.841Z,31.00
2023-01-11T09:50:26.411Z,36.72
2023-01-11T09:52:56.188Z,30.33
2023-01-11T09:55:29.992Z,27.83
2023-01-11T09:58:06.023Z,27.08
2023-01-11T10:00:44.300Z,30.02
2023-01-11T10:03:54.383Z,29.08
2023-01-11T10:06:27.165Z,27.90
2023-01-11T10:18:34.071Z,31.30
2023-01-11T10:18:35.338Z,31.73
2023-01-11T10:21:07.226Z,40.20
2023-01-11T10:23:42.093Z,26.92
2023-01-11T10:26:21.251Z,33.60
2023-01-11T10:29:05.273Z,29.10
2023-01-11T10:31:49.358Z,29.73
2023-01-11T10:34:38.989Z,22.48
2023-01-11T10:37:26.786Z,28.50
2023-01-11T10:40:18.444Z,38.20
2023-01-11T10:42:49.842Z,28.83
2023-01-11T10:45:20.004Z,29.35
2023-01-11T10:47:56.639Z,29.35
2023-01-11T10:50:27.925Z,25.58
2023-01-11T10:53:01.060Z,37.40
2023-01-11T10:55:34.698Z,23.15
2023-01-11T10:58:11.052Z,22.10
2023-01-11T11:00:44.329Z,28.90
2023-01-11T11:03:51.104Z,24.27
2023-01-11T11:06:28.493Z,27.77
2023-01-11T11:09:02.030Z,25.42
2023-01-11T11:11:33.208Z,25.60
2023-01-11T11:14:04.934Z,27.13
2023-01-11T11:16:49.858Z,32.88
2023-01-11T11:19:22.373Z,19.30
2023-01-11T11:21:52.555Z,25.20
2023-01-11T11:24:24.385Z,24.40
2023-01-11T11:27:00.385Z,19.73
2023-01-11T11:29:30.835Z,29.92
2023-01-11T11:32:00.091Z,21.38
2023-01-11T11:34:28.455Z,23.13
2023-01-11T11:36:59.411Z,26.33
2023-01-11T11:39:30.526Z,27.73
2023-01-11T11:42:06.359Z,31.08
2023-01-11T11:44:35.105Z,20.33
2023-01-11T11:47:04.168Z,23.75
2023-01-11T11:49:33.394Z,23.85
2023-01-11T11:52:03.987Z,25.75
2023-01-11T11:54:33.217Z,22.63
2023-01-11T11:57:13.711Z,26.92
2023-01-11T11:59:45.757Z,17.05
2023-01-11T12:02:22.729Z,21.88
2023-01-11T12:04:51.793Z,22.30
2023-01-11T12:07:22.419Z,27.00
2023-01-11T12:09:52.397Z,24.88
2023-01-11T12:12:21.165Z,24.55
2023-01-11T12:15:09.819Z,28.00
2023-01-11T12:17:38.266Z,25.23
2023-01-11T12:20:28.533Z,24.00
2023-01-11T12:23:16.854Z,26.77
2023-01-11T12:26:01.191Z,25.88
2023-01-11T12:28:41.812Z,31.40
2023-01-11T12:31:14.979Z,21.42
2023-01-11T12:33:47.537Z,23.77
2023-01-11T12:36:21.436Z,26.02
2023-01-11T12:39:00.605Z,23.48
2023-01-11T12:41:54.177Z,22.38
2023-01-11T12:44:33.563Z,21.05
2023-01-11T12:47:18.835Z,23.75
2023-01-11T12:49:47.906Z,27.23
2023-01-11T12:52:39.233Z,18.38
2023-01-11T12:55:29.319Z,23.13
2023-01-11T12:58:16.031Z,27.98
2023-01-11T13:01:08.399Z,31.52
2023-01-11T13:04:05.676Z,23.17
2023-01-11T13:06:37.446Z,26.73
2023-01-11T13:09:10.221Z,25.88
2023-01-11T13:11:49.172Z,28.40
2023-01-11T13:14:50.093Z,30.08
2023-01-11T13:17:29.785Z,20.30
2023-01-11T13:20:20.372Z,25.80
2023-01-11T13:22:51.871Z,23.52
2023-01-11T13:25:22.867Z,26.30
2023-01-11T13:27:52.933Z,21.30
2023-01-11T13:30:24.411Z,27.02
2023-01-11T13:32:56.827Z,26.60
2023-01-11T13:35:33.094Z,28.27
2023-01-11T13:38:05.745Z,21.17
2023-01-11T13:40:36.961Z,24.15
2023-01-11T13:43:08.888Z,25.20
2023-01-11T13:45:39.051Z,23.58
2023-01-11T13:48:13.028Z,20.30
2023-01-11T13:53:18.963Z,29.55
2023-01-11T13:55:54.206Z,28.50
2023-01-11T13:58:29.048Z,20.05
2023-01-11T14:01:01.654Z,25.02
2023-01-11T14:03:33.794Z,27.23
2023-01-11T14:06:13.573Z,26.25
2023-01-11T14:09:00.537Z,22.98
2023-01-11T14:11:32.748Z,28.40
2023-01-11T14:14:18.447Z,33.20
2023-01-11T14:16:56.662Z,20.17
2023-01-11T14:19:35.982Z,24.80
2023-01-11T14:22:20.240Z,26.05
2023-01-11T14:24:54.347Z,31.00
2023-01-11T14:27:49.375Z,37.22
2023-01-11T14:30:48.444Z,24.58
2023-01-11T14:33:35.380Z,27.23
2023-01-11T14:36:13.373Z,28.58
2023-01-11T14:39:02.715Z,28.13
2023-01-11T14:41:56.214Z,28.13
2023-01-11T14:44:39.813Z,27.52
2023-01-11T14:47:37.257Z,25.93
2023-01-11T14:50:17.525Z,28.60
2023-01-11T14:52:46.198Z,24.88
2023-01-11T14:55:19.009Z,21.27
2023-01-11T14:58:03.007Z,23.60
2023-01-11T15:01:04.657Z,28.40
2023-01-11T15:03:40.005Z,25.83
2023-01-11T15:06:14.621Z,29.30
2023-01-11T15:08:51.029Z,29.73
2023-01-11T15:11:31.551Z,35.67
2023-01-11T15:14:04.558Z,26.17
2023-01-11T15:16:54.119Z,22.50
2023-01-11T15:19:29.039Z,21.45
2023-01-11T15:21:58.531Z,21.60
2023-01-11T15:24:29.157Z,25.67
2023-01-11T15:26:58.869Z,20.55
2023-01-11T15:29:30.091Z,23.23
2023-01-11T15:32:18.556Z,25.92
2023-01-11T15:34:49.355Z,35.05
2023-01-11T15:37:41.546Z,24.63
2023-01-11T15:40:17.875Z,23.67
2023-01-11T15:43:24.007Z,22.33
2023-01-11T15:46:44.750Z,31.42
2023-01-11T15:49:54.309Z,27.58
2023-01-11T15:52:52.217Z,26.77
2023-01-11T15:55:48.308Z,29.10
2023-01-11T15:59:15.728Z,22.33
2023-01-11T16:02:04.177Z,23.38
2023-01-11T16:04:33.492Z,24.08
2023-01-11T16:07:05.643Z,30.83
2023-01-11T16:09:58.887Z,28.38
2023-01-11T16:12:50.658Z,24.65
2023-01-11T16:15:39.778Z,26.67
2023-01-11T16:18:13.891Z,23.67
2023-01-11T16:23:20.203Z,22.17
2023-01-11T16:25:53.273Z,16.17
2023-01-11T16:28:21.552Z,21.08
2023-01-11T16:30:57.031Z,30.08
2023-01-11T16:33:27.153Z,20.00
2023-01-11T16:36:06.340Z,23.67
2023-01-11T16:38:40.347Z,22.25
2023-01-11T16:41:13.356Z,32.22
2023-01-11T16:43:45.199Z,24.67
2023-01-11T16:46:37.728Z,15.52
2023-01-11T16:49:11.021Z,20.10
2023-01-11T16:51:39.050Z,18.30
2023-01-11T16:54:07.219Z,25.90
2023-01-11T16:56:37.103Z,14.75
2023-01-11T16:59:08.097Z,19.48
2023-01-11T17:01:50.517Z,22.63
2023-01-11T17:04:29.810Z,19.67
2023-01-11T17:06:57.807Z,21.35
2023-01-11T17:09:28.271Z,23.95
2023-01-11T17:11:57.571Z,18.17
2023-01-11T17:14:54.617Z,15.50
2023-01-11T17:17:22.907Z,21.33
2023-01-11T17:19:51.788Z,17.85
2023-01-11T17:22:22.950Z,26.17
2023-01-11T17:24:54.297Z,18.73
2023-01-11T17:27:26.121Z,21.48
2023-01-11T17:29:55.770Z,20.42
2023-01-11T17:32:25.548Z,18.70
2023-01-11T17:34:54.004Z,15.65
2023-01-11T17:37:22.601Z,23.70
2023-01-11T17:39:51.666Z,17.58
2023-01-11T17:42:37.517Z,22.20
2023-01-11T17:45:18.567Z,17.95
2023-01-11T17:47:49.507Z,17.23
2023-01-11T17:50:24.676Z,20.45
2023-01-11T17:52:55.137Z,18.77
2023-01-11T17:55:24.740Z,14.95
2023-01-11T17:58:12.666Z,17.27
2023-01-11T18:00:43.711Z,22.40
2023-01-11T18:03:15.890Z,16.25
2023-01-11T18:05:44.519Z,19.27
2023-01-11T18:08:20.635Z,17.85
2023-01-11T18:10:55.149Z,31.00
2023-01-11T18:13:27.344Z,22.75
2023-01-11T18:15:56.813Z,23.52
2023-01-11T18:18:47.221Z,19.08
2023-01-11T18:21:41.095Z,19.85
2023-01-11T18:24:26.576Z,18.67
2023-01-11T18:27:07.819Z,19.38
2023-01-11T18:29:50.438Z,24.13
2023-01-11T18:32:20.509Z,19.30
2023-01-11T18:34:50.299Z,16.75
2023-01-11T18:37:18.328Z,16.27
2023-01-11T18:39:46.352Z,22.17
2023-01-11T18:42:19.513Z,16.75
2023-01-11T18:44:49.647Z,20.80
2023-01-11T18:47:21.663Z,23.05
2023-01-11T18:49:50.487Z,25.60
2023-01-11T18:52:18.912Z,24.13
2023-01-11T18:54:47.258Z,22.83
2023-01-11T18:57:15.231Z,15.02
2023-01-11T18:59:43.422Z,18.30
2023-01-11T19:04:55.286Z,15.52
2023-01-11T19:07:24.553Z,16.02
2023-01-11T19:09:54.783Z,21.00
2023-01-11T19:12:22.951Z,18.33
2023-01-11T19:14:51.002Z,23.85
2023-01-11T19:17:20.414Z,22.70
2023-01-11T19:19:48.443Z,23.02
2023-01-11T19:22:16.532Z,18.00
2023-01-11T19:24:44.403Z,28.13
2023-01-11T19:27:13.664Z,21.38
2023-01-11T19:29:42.174Z,15.57
2023-01-11T19:32:10.294Z,21.88
2023-01-11T19:34:41.149Z,20.30
2023-01-11T19:37:09.221Z,18.42
2023-01-11T19:39:37.312Z,21.25
2023-01-11T19:42:05.662Z,33.05
2023-01-11T19:44:35.070Z,22.25
2023-01-11T19:47:11.505Z,27.92
2023-01-11T19:49:41.591Z,24.27
2023-01-11T19:52:13.261Z,23.42
2023-01-11T19:54:42.311Z,18.25
2023-01-11T19:57:11.582Z,22.75
2023-01-11T19:59:39.420Z,20.65
2023-01-11T20:02:08.086Z,28.27
2023-01-11T20:04:37.347Z,21.33
2023-01-11T20:07:07.203Z,21.45
2023-01-11T20:09:37.612Z,21.63
2023-01-11T20:12:06.006Z,18.98
2023-01-11T20:14:33.985Z,23.15
2023-01-11T20:17:02.537Z,18.27
2023-01-11T20:19:32.299Z,26.90
2023-01-11T20:22:08.009Z,17.67
2023-01-11T20:24:44.380Z,26.77
2023-01-11T20:27:20.857Z,30.27
2023-01-11T20:33:12.568Z,19.25
2023-01-11T20:42:29.560Z,27.60
2023-01-11T20:45:32.563Z,22.35
2023-01-11T20:51:58.162Z,18.70
2023-01-11T20:58:29.843Z,25.10
2023-01-11T21:01:32.132Z,28.55
2023-01-11T21:04:13.791Z,26.10
2023-01-11T21:10:05.626Z,22.90
2023-01-11T21:12:34.009Z,27.77
2023-01-11T21:15:03.326Z,15.45
2023-01-11T21:17:31.590Z,15.13
2023-01-11T21:19:59.500Z,18.77
2023-01-11T21:22:27.675Z,25.95
2023-01-11T21:24:55.500Z,25.48
2023-01-11T21:27:23.473Z,11.77
2023-01-11T21:29:51.452Z,13.75
2023-01-11T21:32:21.561Z,16.75
2023-01-11T21:34:49.650Z,16.10
2023-01-11T21:37:19.808Z,21.27
2023-01-11T21:39:47.866Z,17.92
2023-01-11T21:42:15.665Z,18.48
2023-01-11T21:44:43.999Z,21.05
2023-01-11T21:47:14.676Z,16.77
2023-01-11T21:49:44.036Z,14.88
2023-01-11T21:52:12.058Z,18.23
2023-01-11T21:54:39.968Z,17.98
2023-01-11T21:57:07.996Z,13.57
2023-01-11T21:59:36.019Z,16.75
2023-01-11T22:02:04.013Z,17.13
2023-01-11T22:04:31.994Z,16.45
2023-01-11T22:07:01.195Z,17.35
2023-01-11T22:09:29.116Z,18.60
2023-01-11T22:11:57.089Z,20.33
2023-01-11T22:14:25.442Z,20.05
2023-01-11T22:16:53.498Z,13.20
2023-01-11T22:19:21.657Z,19.67
2023-01-11T22:21:49.584Z,19.17
2023-01-11T22:24:18.857Z,19.17
2023-01-11T22:26:46.929Z,16.52
2023-01-11T22:29:17.851Z,20.55
2023-01-11T22:31:47.702Z,20.45
2023-01-11T22:34:16.466Z,16.17
2023-01-11T22:36:44.937Z,13.63
2023-01-11T22:39:13.908Z,14.90
2023-01-11T22:41:45.575Z,16.92
2023-01-11T22:44:13.794Z,14.68
2023-01-11T22:46:42.062Z,17.38
2023-01-11T22:49:10.479Z,15.13
2023-01-11T22:51:38.702Z,14.63
2023-01-11T22:54:06.648Z,19.88
2023-01-11T22:56:34.456Z,12.98
2023-01-11T22:59:03.934Z,10.43
2023-01-11T23:01:33.576Z,15.25
2023-01-11T23:04:01.916Z,11.70
2023-01-11T23:06:30.901Z,13.63
2023-01-11T23:08:58.918Z,20.33
2023-01-11T23:11:45.828Z,14.23
2023-01-11T23:14:16.437Z,13.10
2023-01-11T23:16:45.251Z,13.88
2023-01-11T23:19:13.849Z,13.35
2023-01-11T23:21:42.639Z,22.92
2023-01-11T23:24:11.080Z,18.20
2023-01-11T23:26:39.049Z,18.83
2023-01-11T23:29:07.020Z,13.38
2023-01-11T23:31:36.477Z,21.83
2023-01-11T23:34:07.016Z,14.95
2023-01-11T23:36:36.150Z,18.45
2023-01-11T23:39:04.183Z,13.52
2023-01-11T23:41:49.853Z,12.77
2023-01-11T23:44:18.399Z,17.00
2023-01-11T23:47:04.793Z,14.60
2023-01-11T23:49:33.442Z,11.65
2023-01-11T23:52:01.872Z,17.23
2023-01-11T23:54:31.632Z,13.15
2023-01-11T23:57:00.483Z,16.58
2023-01-11T23:59:28.395Z,11.52
